Time;durP1;ratioP1;P1;durP2;ratioP2;P2;SDS_P1;SDS_P2;PMS_P1;PMS_P2;Temp;Humidity;BMP_temperature;BMP_pressure;BME280_temperature;BME280_humidity;BME280_pressure;Samples;Min_cycle;Max_cycle;Signal;HPM_P1;HPM_P2
2022/01/26 00:06:27;;;;;;;55.50;31.10;;;;;;;3.55;100.00;103251.59;5026591;28;20474;-73
2022/01/26 00:08:53;;;;;;;60.10;32.37;;;;;;;3.77;100.00;103269.72;5025111;28;20446;-72
2022/01/26 00:11:18;;;;;;;50.03;29.20;;;;;;;3.82;100.00;103274.78;5027039;28;20188;-72
2022/01/26 00:13:44;;;;;;;51.23;30.40;;;;;;;3.48;100.00;103189.25;5026032;28;20192;-73
2022/01/26 00:16:19;;;;;;;53.03;30.43;;;;;;;3.33;100.00;103166.34;5040143;22;20569;-77
2022/01/26 00:18:44;;;;;;;50.80;29.60;;;;;;;3.58;100.00;103210.75;5043301;28;20202;-77
2022/01/26 00:21:17;;;;;;;53.33;30.03;;;;;;;3.61;100.00;103266.31;5045434;28;20517;-78
2022/01/26 00:24:08;;;;;;;55.70;29.50;;;;;;;2.75;100.00;103138.03;5045349;28;20648;-79
2022/01/26 00:26:58;;;;;;;56.27;29.87;;;;;;;3.16;100.00;103199.19;5040028;28;20465;-78
2022/01/26 00:29:19;;;;;;;56.20;30.03;;;;;;;3.62;100.00;103172.50;5033841;28;20519;-77
2022/01/26 00:40:16;;;;;;;54.90;29.27;;;;;;;3.37;100.00;103205.84;5033214;28;20977;-78
2022/01/26 00:42:43;;;;;;;60.87;31.50;;;;;;;3.09;100.00;103177.47;5034638;28;20565;-78
2022/01/26 00:45:09;;;;;;;57.97;33.47;;;;;;;3.08;100.00;103185.53;5032153;28;21704;-78
2022/01/26 00:47:36;;;;;;;54.87;30.13;;;;;;;2.78;100.00;103136.06;5032695;28;20446;-78
2022/01/26 00:50:03;;;;;;;52.43;28.20;;;;;;;3.03;100.00;103129.28;5036437;28;20179;-77
2022/01/26 00:52:39;;;;;;;49.77;28.33;;;;;;;3.25;100.00;103118.22;5032802;28;20445;-77
2022/01/26 00:55:07;;;;;;;56.53;32.00;;;;;;;3.07;100.00;103130.81;5014660;28;20897;-79
2022/01/26 00:57:33;;;;;;;53.80;28.90;;;;;;;3.49;100.00;103190.09;5024337;28;20978;-77
2022/01/26 00:59:59;;;;;;;54.17;30.70;;;;;;;3.45;100.00;103223.09;5034867;28;20448;-77
2022/01/26 01:02:25;;;;;;;51.40;28.80;;;;;;;3.67;100.00;103235.88;5035670;28;20773;-77
2022/01/26 01:04:50;;;;;;;50.33;28.40;;;;;;;3.77;100.00;103234.38;5033243;28;20465;-76
2022/01/26 01:07:20;;;;;;;53.63;32.00;;;;;;;3.55;100.00;103216.25;5032265;28;20446;-76
2022/01/26 01:09:46;;;;;;;54.17;28.60;;;;;;;3.88;100.00;103241.66;5035635;28;20295;-77
2022/01/26 01:12:12;;;;;;;56.70;31.23;;;;;;;3.51;100.00;103226.22;5033427;28;20462;-78
2022/01/26 01:14:39;;;;;;;54.03;29.20;;;;;;;3.49;100.00;103203.38;5030875;28;21162;-77
2022/01/26 01:17:07;;;;;;;55.50;30.63;;;;;;;3.58;100.00;103200.16;5026560;28;20230;-78
2022/01/26 01:19:41;;;;;;;54.37;29.00;;;;;;;3.24;100.00;103113.84;5032313;28;20491;-78
2022/01/26 01:22:35;;;;;;;57.37;30.20;;;;;;;3.23;100.00;103128.06;5025428;28;20958;-77
2022/01/26 01:27:48;;;;;;;55.20;29.30;;;;;;;3.30;100.00;103140.84;5035746;28;20519;-77
2022/01/26 01:32:54;;;;;;;47.90;28.43;;;;;;;2.97;100.00;103076.63;5032612;28;20538;-77
2022/01/26 01:35:20;;;;;;;49.93;28.63;;;;;;;3.29;100.00;103120.56;5037784;28;20939;-77
2022/01/26 01:37:46;;;;;;;56.40;29.43;;;;;;;3.50;100.00;103166.16;5031020;28;21048;-77
2022/01/26 01:40:12;;;;;;;53.87;28.77;;;;;;;2.53;100.00;103057.16;5035732;28;20577;-79
2022/01/26 01:42:38;;;;;;;52.53;28.47;;;;;;;1.51;100.00;102828.56;5037212;28;20275;-78
2022/01/26 01:45:04;;;;;;;49.97;27.50;;;;;;;3.05;100.00;103114.13;5031475;28;20589;-77
2022/01/26 01:47:29;;;;;;;52.03;29.47;;;;;;;3.63;100.00;103177.69;5035116;28;20776;-77
2022/01/26 01:49:55;;;;;;;51.40;27.90;;;;;;;2.57;100.00;103037.47;5032041;28;20448;-77
2022/01/26 01:52:20;;;;;;;59.43;31.30;;;;;;;3.73;100.00;103201.00;5031951;28;20917;-77
2022/01/26 01:54:51;;;;;;;53.93;30.00;;;;;;;3.00;100.00;103057.88;5033422;28;20180;-77
2022/01/26 01:57:22;;;;;;;57.63;28.70;;;;;;;3.00;100.00;103049.91;5033768;28;20268;-77
2022/01/26 01:59:49;;;;;;;56.30;30.67;;;;;;;3.76;100.00;103177.78;5035113;28;20835;-78
2022/01/26 02:02:14;;;;;;;58.80;30.10;;;;;;;3.32;100.00;103162.81;5027523;28;20435;-78
2022/01/26 02:04:40;;;;;;;57.97;32.10;;;;;;;2.95;100.00;103044.88;5028073;28;21020;-77
2022/01/26 02:07:05;;;;;;;55.90;30.10;;;;;;;1.66;100.00;102892.94;5035966;28;20204;-77
2022/01/26 02:09:31;;;;;;;57.13;30.40;;;;;;;2.13;100.00;102984.53;5032346;28;20694;-79
2022/01/26 02:11:58;;;;;;;57.50;30.13;;;;;;;3.28;100.00;103124.16;5034447;28;20267;-78
2022/01/26 02:14:46;;;;;;;56.93;30.03;;;;;;;2.72;100.00;103112.59;5033732;28;20268;-79
2022/01/26 02:18:09;;;;;;;65.03;32.20;;;;;;;2.35;100.00;103029.16;5026725;28;20507;-84
2022/01/26 02:20:35;;;;;;;65.13;32.43;;;;;;;3.18;100.00;103133.63;5033800;28;20443;-80
2022/01/26 02:53:48;;;;;;;56.97;31.80;;;;;;;3.54;100.00;103142.91;5031322;28;20445;-80
2022/01/26 02:55:55;;;;;;;58.00;31.30;;;;;;;3.05;100.00;103107.03;5029629;28;20472;-83
2022/01/26 03:03:59;;;;;;;65.43;31.43;;;;;;;3.00;100.00;103129.47;5031383;28;20435;-83
2022/01/26 03:06:33;;;;;;;58.63;32.33;;;;;;;3.53;100.00;103134.13;5017785;28;20979;-80
2022/01/26 03:09:05;;;;;;;65.87;31.97;;;;;;;3.45;100.00;103144.34;5031179;28;20450;-78
2022/01/26 03:11:34;;;;;;;57.53;31.07;;;;;;;2.64;100.00;103030.03;5032540;28;20492;-80
2022/01/26 03:14:09;;;;;;;69.53;34.73;;;;;;;2.73;100.00;103082.47;5033650;28;20457;-80
2022/01/26 03:16:42;;;;;;;56.70;30.47;;;;;;;3.54;100.00;103121.69;5030838;28;20470;-79
2022/01/26 03:21:55;;;;;;;65.03;33.53;;;;;;;3.08;100.00;103116.59;5032843;28;20859;-81
2022/01/26 03:30:02;;;;;;;57.57;31.10;;;;;;;3.27;100.00;103088.00;5030430;28;20556;-78
2022/01/26 03:35:18;;;;;;;65.33;33.80;;;;;;;3.18;100.00;103115.06;5034310;28;20447;-79
2022/01/26 03:37:52;;;;;;;59.73;31.53;;;;;;;2.79;100.00;103060.91;5033102;28;20450;-83
2022/01/26 03:40:19;;;;;;;63.73;32.43;;;;;;;2.99;100.00;103133.06;5013209;28;20467;-81
2022/01/26 03:42:44;;;;;;;65.40;32.13;;;;;;;2.18;100.00;102966.59;5030114;28;20438;-79
2022/01/26 03:45:09;;;;;;;60.60;30.43;;;;;;;2.52;100.00;102998.97;5030685;28;20852;-81
2022/01/26 03:47:35;;;;;;;62.40;33.30;;;;;;;2.99;100.00;103067.63;5031741;28;20180;-79
2022/01/26 03:50:00;;;;;;;64.13;33.20;;;;;;;3.46;100.00;103161.13;5035356;28;20759;-77
2022/01/26 03:52:26;;;;;;;68.73;32.00;;;;;;;3.01;100.00;103080.78;5029041;28;20288;-77
2022/01/26 03:54:51;;;;;;;64.73;34.00;;;;;;;3.18;100.00;103157.50;5029993;28;20182;-81
2022/01/26 03:57:17;;;;;;;59.27;31.83;;;;;;;3.23;100.00;103147.47;5027457;28;20210;-81
2022/01/26 03:59:42;;;;;;;67.40;32.70;;;;;;;3.15;100.00;103145.31;5031699;28;20684;-77
2022/01/26 04:02:07;;;;;;;60.47;30.73;;;;;;;3.19;100.00;103175.13;5024216;28;20184;-79
2022/01/26 04:04:40;;;;;;;58.20;31.37;;;;;;;3.08;100.00;103124.53;5030004;28;20681;-77
2022/01/26 04:07:05;;;;;;;69.47;35.20;;;;;;;3.34;100.00;103152.13;5031274;28;20231;-79
2022/01/26 04:09:31;;;;;;;60.10;31.50;;;;;;;3.30;100.00;103130.25;5010645;28;20458;-79
2022/01/26 04:11:56;;;;;;;69.50;34.60;;;;;;;2.73;100.00;103021.53;5032121;28;20184;-82
2022/01/26 04:14:27;;;;;;;60.93;32.20;;;;;;;3.38;100.00;103120.00;5007908;28;20190;-79
2022/01/26 04:16:52;;;;;;;67.27;33.70;;;;;;;3.32;100.00;103115.06;5031304;28;20743;-80
2022/01/26 04:19:19;;;;;;;70.07;35.70;;;;;;;3.11;100.00;103119.06;5028894;28;20871;-81
2022/01/26 04:24:20;;;;;;;77.60;38.10;;;;;;;2.93;100.00;103099.81;5034258;28;20949;-80
2022/01/26 04:29:18;;;;;;;65.40;34.37;;;;;;;2.79;100.00;103090.06;5032195;28;20442;-81
2022/01/26 04:31:43;;;;;;;70.87;36.00;;;;;;;2.75;100.00;103061.16;5030474;28;20434;-79
2022/01/26 04:34:09;;;;;;;79.03;34.97;;;;;;;2.45;100.00;103025.81;5031140;28;20457;-80
2022/01/26 04:36:41;;;;;;;74.77;34.90;;;;;;;2.96;100.00;103080.22;5032906;28;20581;-80
2022/01/26 04:39:12;;;;;;;70.10;34.83;;;;;;;2.75;100.00;103069.13;5030188;28;20214;-79
2022/01/26 04:41:50;;;;;;;75.23;36.17;;;;;;;2.94;100.00;103064.41;5035042;28;20513;-85
2022/01/26 04:44:25;;;;;;;72.10;37.07;;;;;;;2.54;100.00;103016.47;5034095;28;20434;-79
2022/01/26 04:46:52;;;;;;;70.23;33.40;;;;;;;2.82;100.00;103075.75;5029623;28;20545;-81
2022/01/26 04:49:18;;;;;;;67.37;33.10;;;;;;;2.80;100.00;103061.75;5034783;28;20446;-83
2022/01/26 04:51:44;;;;;;;67.07;33.20;;;;;;;1.38;100.00;102817.00;5035166;28;20438;-81
2022/01/26 04:54:10;;;;;;;70.17;34.77;;;;;;;1.71;100.00;102880.28;5033584;28;20439;-82
2022/01/26 04:56:41;;;;;;;68.30;32.40;;;;;;;2.78;100.00;103053.91;5027934;28;20508;-80
2022/01/26 04:59:06;;;;;;;69.33;33.17;;;;;;;2.13;100.00;102934.25;5033025;28;20430;-81
2022/01/26 05:01:32;;;;;;;73.17;33.10;;;;;;;2.42;100.00;102990.72;5034565;28;20437;-79
2022/01/26 05:03:58;;;;;;;70.00;34.40;;;;;;;2.76;100.00;103047.84;5028740;28;20645;-80
2022/01/26 05:06:23;;;;;;;69.90;32.77;;;;;;;2.66;100.00;103017.53;5031510;28;20520;-81
2022/01/26 05:08:49;;;;;;;57.37;30.57;;;;;;;2.87;100.00;103057.78;5034578;28;20219;-80
2022/01/26 05:11:21;;;;;;;71.77;32.37;;;;;;;2.61;100.00;103030.22;5034391;28;20191;-79
2022/01/26 05:13:46;;;;;;;70.67;33.07;;;;;;;2.70;100.00;103050.84;5030073;28;20200;-79
2022/01/26 05:16:12;;;;;;;66.70;31.60;;;;;;;2.46;100.00;102987.81;5032089;28;20462;-79
2022/01/26 05:18:37;;;;;;;66.77;34.13;;;;;;;2.84;100.00;103042.91;5035263;28;20181;-81
2022/01/26 05:21:03;;;;;;;61.70;31.70;;;;;;;3.02;100.00;103053.34;5034449;28;20799;-82
2022/01/26 05:23:29;;;;;;;59.40;29.83;;;;;;;2.66;100.00;102997.22;5034967;28;20677;-81
2022/01/26 05:25:55;;;;;;;60.00;31.57;;;;;;;3.26;100.00;103057.09;5031940;28;20482;-82
2022/01/26 05:28:20;;;;;;;57.70;29.13;;;;;;;2.81;100.00;103002.50;5034356;28;20190;-82
2022/01/26 05:30:46;;;;;;;58.03;28.87;;;;;;;2.87;100.00;103002.97;5027988;28;20525;-81
2022/01/26 05:33:11;;;;;;;60.10;30.60;;;;;;;2.40;100.00;102955.53;5032189;28;20208;-80
2022/01/26 05:35:36;;;;;;;59.17;30.83;;;;;;;1.91;100.00;102902.91;5032596;28;20283;-81
2022/01/26 05:38:02;;;;;;;55.07;28.20;;;;;;;2.47;100.00;102970.97;5026525;28;20653;-81
2022/01/26 05:40:28;;;;;;;66.83;32.20;;;;;;;2.75;100.00;103050.56;5022730;28;20656;-79
2022/01/26 05:42:54;;;;;;;57.87;28.60;;;;;;;2.89;100.00;103047.91;5031320;28;20229;-80
2022/01/26 05:45:34;;;;;;;63.03;28.43;;;;;;;1.98;100.00;102906.91;5029190;28;20212;-82
2022/01/26 05:48:03;;;;;;;55.13;29.60;;;;;;;2.43;100.00;102960.66;5023123;28;20491;-81
2022/01/26 05:50:28;;;;;;;58.80;31.00;;;;;;;2.83;100.00;103003.25;5027071;28;20438;-81
2022/01/26 05:52:54;;;;;;;56.90;28.73;;;;;;;2.26;100.00;102914.03;5020988;28;20431;-80
2022/01/26 05:55:19;;;;;;;55.73;28.07;;;;;;;2.40;100.00;102964.34;5012699;28;20208;-80
2022/01/26 05:57:45;;;;;;;57.40;27.80;;;;;;;2.75;100.00;103018.75;5014473;28;20280;-81
2022/01/26 06:00:11;;;;;;;58.20;29.27;;;;;;;2.68;100.00;103016.50;5026478;28;20559;-81
2022/01/26 06:02:36;;;;;;;62.07;30.97;;;;;;;2.15;100.00;102901.44;5029743;28;20255;-83
2022/01/26 06:05:02;;;;;;;59.23;29.80;;;;;;;2.33;100.00;102962.16;5028475;28;20957;-80
2022/01/26 06:07:27;;;;;;;61.30;29.63;;;;;;;1.83;100.00;102858.38;5032293;28;20187;-83
2022/01/26 06:09:53;;;;;;;61.30;28.30;;;;;;;1.89;100.00;102894.22;5024395;28;20180;-80
2022/01/26 06:12:19;;;;;;;62.00;30.33;;;;;;;2.16;100.00;102921.66;5029731;28;20525;-82
2022/01/26 06:14:44;;;;;;;53.00;28.17;;;;;;;2.04;100.00;102914.47;5026777;28;20276;-82
2022/01/26 06:17:09;;;;;;;54.90;27.80;;;;;;;1.45;100.00;102827.13;5047646;22;20231;-81
2022/01/26 06:19:35;;;;;;;64.33;29.90;;;;;;;2.70;100.00;103013.75;5025882;28;20551;-83
2022/01/26 06:22:00;;;;;;;62.50;28.60;;;;;;;1.95;100.00;102926.44;5022809;28;20219;-83
2022/01/26 06:24:26;;;;;;;57.80;28.97;;;;;;;2.64;100.00;103017.63;5021951;28;20210;-83
2022/01/26 06:26:51;;;;;;;52.67;28.30;;;;;;;2.65;100.00;103015.84;5020454;28;20199;-83
2022/01/26 06:29:17;;;;;;;54.03;27.37;;;;;;;1.99;100.00;102898.00;5040990;28;20191;-82
2022/01/26 06:31:43;;;;;;;70.03;30.73;;;;;;;2.15;100.00;102988.81;5038082;28;20717;-84
2022/01/26 06:34:12;;;;;;;50.30;27.90;;;;;;;2.04;100.00;102946.22;5041089;28;20186;-82
2022/01/26 06:36:43;;;;;;;54.87;28.37;;;;;;;2.77;100.00;103038.06;5038324;28;21092;-85
2022/01/26 06:39:13;;;;;;;58.07;29.93;;;;;;;2.24;100.00;102953.81;5021394;28;20673;-86
2022/01/26 06:41:40;;;;;;;60.27;29.93;;;;;;;2.17;100.00;102952.50;5029148;28;20505;-83
2022/01/26 06:44:18;;;;;;;61.00;28.90;;;;;;;2.10;100.00;102951.16;5034976;28;20467;-81
2022/01/26 06:51:52;;;;;;;58.70;30.10;;;;;;;2.55;100.00;102998.81;5040141;28;20438;-86
2022/01/26 06:54:17;;;;;;;56.87;28.47;;;;;;;2.61;100.00;103003.72;5022630;28;20172;-86
2022/01/26 06:56:44;;;;;;;64.90;31.07;;;;;;;2.63;100.00;102981.50;5040375;28;20505;-87
2022/01/26 06:59:10;;;;;;;55.80;30.03;;;;;;;2.40;100.00;102932.56;5022960;28;20180;-85
2022/01/26 07:01:35;;;;;;;58.43;30.83;;;;;;;2.72;100.00;103011.88;5022918;28;20432;-88
2022/01/26 07:04:01;;;;;;;54.77;29.03;;;;;;;2.34;100.00;102942.66;5027249;28;20626;-84
2022/01/26 07:06:26;;;;;;;54.90;29.13;;;;;;;2.39;100.00;102944.09;5025988;28;20246;-86
2022/01/26 07:08:52;;;;;;;58.37;30.07;;;;;;;2.31;100.00;102956.09;5018793;28;20176;-88
2022/01/26 07:11:17;;;;;;;60.10;31.43;;;;;;;2.77;100.00;103024.81;5031345;28;20171;-87
2022/01/26 07:13:44;;;;;;;51.60;29.37;;;;;;;2.75;100.00;103051.44;5020132;28;21071;-87
2022/01/26 07:21:38;;;;;;;57.93;30.50;;;;;;;2.62;100.00;103031.91;5041689;28;20425;-86
2022/01/26 07:24:03;;;;;;;56.57;29.57;;;;;;;2.75;100.00;103024.94;5040325;28;20457;-87
2022/01/26 07:26:30;;;;;;;59.90;32.10;;;;;;;2.64;100.00;102988.50;5021102;28;20281;-81
2022/01/26 07:29:02;;;;;;;61.60;30.10;;;;;;;2.03;100.00;102896.88;5037984;28;20199;-83
2022/01/26 07:31:27;;;;;;;58.20;29.67;;;;;;;2.81;100.00;103015.75;5020580;28;20445;-84
2022/01/26 07:33:55;;;;;;;62.80;32.00;;;;;;;2.51;100.00;103002.56;5022580;28;20819;-83
2022/01/26 07:36:25;;;;;;;54.07;30.33;;;;;;;2.13;100.00;102948.31;5020776;28;20196;-85
2022/01/26 07:38:52;;;;;;;51.73;28.07;;;;;;;2.84;100.00;103026.16;5026244;28;20438;-87
2022/01/26 07:41:18;;;;;;;55.67;30.87;;;;;;;2.68;100.00;103029.75;5022020;28;20496;-87
2022/01/26 07:43:44;;;;;;;61.00;30.23;;;;;;;2.69;100.00;103031.47;5022700;28;20459;-86
2022/01/26 07:46:11;;;;;;;55.83;29.97;;;;;;;2.67;100.00;103014.78;5019243;28;20462;-86
2022/01/26 07:48:37;;;;;;;59.30;29.87;;;;;;;2.49;100.00;102986.78;5023056;28;20797;-85
2022/01/26 07:51:02;;;;;;;57.83;30.60;;;;;;;2.79;100.00;103012.34;5021924;28;20433;-86
2022/01/26 07:53:28;;;;;;;57.57;28.77;;;;;;;2.64;100.00;103009.69;5025103;28;20180;-89
2022/01/26 07:55:56;;;;;;;61.53;31.57;;;;;;;2.81;100.00;103029.84;5024468;28;20230;-85
2022/01/26 07:58:21;;;;;;;56.17;29.73;;;;;;;2.58;100.00;102991.53;5033048;28;20184;-87
2022/01/26 08:00:47;;;;;;;54.60;29.57;;;;;;;2.87;100.00;103055.97;5032735;28;20928;-87
2022/01/26 08:03:13;;;;;;;54.90;28.60;;;;;;;2.13;100.00;102878.63;5029013;28;20237;-86
2022/01/26 08:05:39;;;;;;;59.13;32.00;;;;;;;3.03;100.00;103016.09;5019338;28;20256;-87
2022/01/26 08:08:04;;;;;;;56.80;30.53;;;;;;;2.85;100.00;103047.25;5022958;28;20207;-86
2022/01/26 08:10:30;;;;;;;57.60;29.90;;;;;;;2.72;100.00;103023.31;5015295;28;20449;-86
2022/01/26 08:12:55;;;;;;;57.10;31.70;;;;;;;2.78;100.00;103029.16;5013899;28;20184;-85
2022/01/26 08:15:21;;;;;;;68.07;31.90;;;;;;;2.34;100.00;102983.25;5041164;28;20767;-83
2022/01/26 08:17:46;;;;;;;57.00;30.93;;;;;;;3.03;100.00;103073.59;5041877;28;20180;-82
2022/01/26 08:20:12;;;;;;;58.23;29.43;;;;;;;2.22;100.00;102938.97;5023622;28;20665;-83
2022/01/26 08:22:38;;;;;;;60.37;30.93;;;;;;;2.44;100.00;102971.16;5039574;28;20231;-85
2022/01/26 08:25:05;;;;;;;60.20;31.87;;;;;;;2.83;100.00;103005.91;5025871;28;20203;-85
2022/01/26 08:27:38;;;;;;;57.57;30.80;;;;;;;3.18;100.00;103043.44;5027443;28;20998;-85
2022/01/26 08:30:09;;;;;;;67.30;33.00;;;;;;;3.07;100.00;103024.75;5026708;28;20985;-85
2022/01/26 08:32:34;;;;;;;64.13;31.00;;;;;;;3.09;100.00;103041.38;5025257;28;20429;-85
2022/01/26 08:35:00;;;;;;;59.70;31.23;;;;;;;2.40;100.00;102943.16;5027241;28;20436;-85
2022/01/26 08:37:25;;;;;;;57.43;30.90;;;;;;;3.06;100.00;103037.13;5023268;28;21140;-85
2022/01/26 08:39:51;;;;;;;56.93;30.77;;;;;;;3.06;100.00;103049.53;5026468;28;20180;-85
2022/01/26 08:42:16;;;;;;;59.53;30.93;;;;;;;2.04;100.00;102895.94;5036924;28;20180;-84
2022/01/26 08:44:43;;;;;;;60.20;33.77;;;;;;;2.09;100.00;102912.41;5027700;28;20192;-85
2022/01/26 08:47:08;;;;;;;63.17;31.63;;;;;;;2.99;100.00;103040.28;5022549;28;20253;-90
2022/01/26 08:49:34;;;;;;;67.97;32.00;;;;;;;3.10;100.00;103043.97;5039930;28;21408;-87
2022/01/26 08:51:59;;;;;;;60.33;30.50;;;;;;;1.25;100.00;102771.94;5022446;28;20183;-86
2022/01/26 08:54:25;;;;;;;63.27;31.90;;;;;;;2.67;100.00;102982.16;5043572;28;20545;-84
2022/01/26 08:56:52;;;;;;;63.60;32.00;;;;;;;3.03;100.00;103005.50;5024908;28;20211;-88
2022/01/26 08:59:18;;;;;;;59.87;30.37;;;;;;;1.39;100.00;102782.56;5022205;28;20633;-84
2022/01/26 09:01:43;;;;;;;56.03;31.40;;;;;;;2.34;100.00;102948.81;5018341;28;20426;-83
2022/01/26 09:04:09;;;;;;;62.40;30.90;;;;;;;2.51;100.00;102952.25;5040903;28;20441;-84
2022/01/26 09:06:39;;;;;;;62.57;33.53;;;;;;;2.16;100.00;102923.47;5024966;28;20210;-85
2022/01/26 09:09:07;;;;;;;66.40;32.60;;;;;;;1.39;100.00;102822.22;5017586;28;20180;-83
2022/01/26 09:11:36;;;;;;;66.43;32.43;;;;;;;2.90;100.00;103049.66;5012216;28;20791;-84
2022/01/26 09:14:07;;;;;;;66.53;33.67;;;;;;;2.02;100.00;102903.94;5034497;28;20427;-84
2022/01/26 09:16:35;;;;;;;57.17;29.77;;;;;;;3.24;100.00;103053.72;5023816;28;20464;-84
2022/01/26 09:19:09;;;;;;;66.90;35.83;;;;;;;3.13;100.00;103059.66;5024617;28;20445;-84
2022/01/26 09:21:35;;;;;;;58.93;31.87;;;;;;;2.74;100.00;103015.25;5041363;28;20419;-83
2022/01/26 09:24:00;;;;;;;61.90;33.03;;;;;;;2.78;100.00;103029.16;5038020;28;20464;-85
2022/01/26 09:26:26;;;;;;;59.47;32.23;;;;;;;2.65;100.00;102973.44;5020704;28;21006;-84
2022/01/26 09:28:51;;;;;;;58.70;31.00;;;;;;;2.36;100.00;102917.78;5044216;28;21426;-85
2022/01/26 09:31:16;;;;;;;65.10;32.40;;;;;;;2.89;100.00;102979.00;5021869;28;20187;-85
2022/01/26 09:33:42;;;;;;;58.87;31.07;;;;;;;2.61;100.00;102961.34;5020353;28;20184;-84
2022/01/26 09:36:07;;;;;;;64.77;33.00;;;;;;;2.34;100.00;102884.41;5038182;28;20207;-83
2022/01/26 09:38:33;;;;;;;58.00;32.70;;;;;;;2.45;100.00;102906.63;5041455;28;20191;-84
2022/01/26 09:40:58;;;;;;;65.97;32.67;;;;;;;2.00;100.00;102873.25;5037587;28;20673;-83
2022/01/26 09:43:24;;;;;;;63.23;32.93;;;;;;;2.99;100.00;103011.94;5040403;28;20323;-84
2022/01/26 09:45:49;;;;;;;64.63;33.13;;;;;;;2.90;100.00;102978.06;5038433;28;20298;-83
2022/01/26 09:48:17;;;;;;;70.57;34.10;;;;;;;3.15;100.00;103023.31;5042278;28;20627;-83
2022/01/26 09:50:43;;;;;;;63.50;33.73;;;;;;;1.92;100.00;102847.25;5040273;28;20195;-83
2022/01/26 09:53:11;;;;;;;73.37;35.73;;;;;;;2.68;100.00;102929.03;5040908;28;20855;-84
2022/01/26 09:55:41;;;;;;;60.73;32.17;;;;;;;2.86;100.00;102972.09;5036157;28;20798;-83
2022/01/26 09:58:07;;;;;;;66.83;35.07;;;;;;;2.58;100.00;102986.22;5035585;28;20442;-82
2022/01/26 10:00:32;;;;;;;63.90;33.00;;;;;;;3.36;100.00;103041.47;5038172;28;20441;-83
2022/01/26 10:02:59;;;;;;;68.07;37.47;;;;;;;3.19;100.00;103044.34;5036150;28;20214;-81
2022/01/26 10:05:25;;;;;;;71.80;36.43;;;;;;;2.93;100.00;102999.94;5038095;28;20199;-82
2022/01/26 10:18:33;;;;;;;73.30;36.87;;;;;;;2.84;100.00;102944.00;5037320;28;20540;-83
2022/01/26 10:21:04;;;;;;;72.50;36.10;;;;;;;3.45;100.00;103055.94;5035160;28;20438;-81
2022/01/26 10:23:38;;;;;;;66.80;35.30;;;;;;;3.31;100.00;103044.41;5036538;28;20406;-82
2022/01/26 10:26:04;;;;;;;70.50;37.80;;;;;;;3.32;100.00;103046.09;5036660;28;20469;-82
2022/01/26 10:28:44;;;;;;;69.10;37.20;;;;;;;3.52;100.00;103044.81;5034949;28;21032;-82
2022/01/26 10:31:18;;;;;;;68.13;36.10;;;;;;;3.56;100.00;103024.28;5025133;28;20191;-81
2022/01/26 10:33:59;;;;;;;78.10;37.97;;;;;;;3.54;100.00;103031.47;5034666;28;20938;-82
2022/01/26 10:36:35;;;;;;;71.67;38.13;;;;;;;3.11;100.00;102954.66;5034910;28;20472;-85
2022/01/26 10:39:06;;;;;;;61.97;34.67;;;;;;;3.24;100.00;102934.34;5017687;28;21191;-82
2022/01/26 10:41:31;;;;;;;69.20;38.37;;;;;;;3.74;100.00;103014.25;5030893;28;21236;-86
2022/01/26 10:43:59;;;;;;;66.10;37.17;;;;;;;3.82;100.00;103036.69;5029115;28;20446;-82
2022/01/26 10:46:38;;;;;;;68.13;37.33;;;;;;;3.76;100.00;103031.78;5038142;28;20869;-83
2022/01/26 10:52:23;;;;;;;73.70;39.23;;;;;;;2.72;100.00;102884.69;4987391;28;20890;-85
2022/01/26 10:54:50;;;;;;;69.30;37.30;;;;;;;2.72;100.00;102848.44;5039095;28;20454;-86
2022/01/26 10:57:16;;;;;;;70.80;36.70;;;;;;;3.94;100.00;103023.56;5024501;28;20527;-88
2022/01/26 10:59:47;;;;;;;69.50;38.93;;;;;;;3.89;100.00;103018.53;5022240;28;20824;-85
2022/01/26 11:02:14;;;;;;;87.40;39.37;;;;;;;3.29;100.00;102948.16;5019985;28;21421;-84
2022/01/26 11:04:42;;;;;;;76.23;36.73;;;;;;;3.23;100.00;102916.72;5015342;28;20545;-89
2022/01/26 11:07:13;;;;;;;71.60;37.60;;;;;;;3.82;100.00;103018.09;5025523;28;20452;-88
2022/01/26 11:09:41;;;;;;;71.93;38.90;;;;;;;2.89;100.00;102852.66;5028274;28;20434;-83
2022/01/26 11:12:10;;;;;;;72.13;39.20;;;;;;;3.76;100.00;103005.25;5040501;28;20441;-87
2022/01/26 11:14:47;;;;;;;76.30;37.90;;;;;;;3.89;100.00;103015.03;5045390;28;20465;-87
2022/01/26 11:17:35;;;;;;;70.77;37.20;;;;;;;3.67;100.00;102989.91;5027310;28;20454;-88
2022/01/26 11:20:13;;;;;;;66.53;37.20;;;;;;;3.86;100.00;103000.16;5028672;28;20439;-88
2022/01/26 11:22:48;;;;;;;69.33;36.80;;;;;;;3.88;100.00;102990.31;5022628;28;20438;-84
2022/01/26 11:25:14;;;;;;;75.63;36.73;;;;;;;3.71;100.00;102996.72;5021570;28;20442;-85
2022/01/26 11:27:41;;;;;;;70.70;36.97;;;;;;;3.35;100.00;102888.53;5022975;28;20410;-85
2022/01/26 11:30:15;;;;;;;58.83;35.63;;;;;;;3.36;100.00;102908.81;5040271;28;20478;-84
2022/01/26 11:33:25;;;;;;;69.77;37.33;;;;;;;3.68;100.00;102961.56;5040466;28;20431;-87
2022/01/26 11:35:53;;;;;;;67.23;35.43;;;;;;;3.83;100.00;102981.78;4981335;28;20458;-83
2022/01/26 11:46:36;;;;;;;64.97;35.13;;;;;;;3.83;100.00;102976.47;5043764;28;21237;-85
2022/01/26 11:49:05;;;;;;;67.83;37.43;;;;;;;3.94;100.00;102965.16;5030405;28;20418;-83
2022/01/26 11:51:42;;;;;;;70.47;37.03;;;;;;;3.81;100.00;102968.59;5041611;28;20449;-82
2022/01/26 11:54:21;;;;;;;71.73;37.10;;;;;;;3.81;100.00;102960.63;5026916;28;20437;-81
2022/01/26 11:57:08;;;;;;;69.67;37.80;;;;;;;3.87;100.00;102961.19;5037191;28;20449;-82
2022/01/26 11:59:36;;;;;;;73.27;36.53;;;;;;;3.69;100.00;102913.69;5013025;28;20456;-85
2022/01/26 12:02:09;;;;;;;65.77;33.77;;;;;;;3.87;100.00;102964.69;5033264;28;20430;-82
2022/01/26 12:04:37;;;;;;;64.27;33.30;;;;;;;4.01;100.00;102953.13;5025526;28;20476;-80
2022/01/26 12:07:12;;;;;;;59.20;33.33;;;;;;;3.94;100.00;102943.91;5028997;28;20482;-83
2022/01/26 12:09:39;;;;;;;58.10;30.30;;;;;;;3.94;100.00;102904.06;5018024;28;20442;-83
2022/01/26 12:12:05;;;;;;;65.97;34.17;;;;;;;3.13;100.00;102798.97;5030037;28;20434;-84
2022/01/26 12:14:33;;;;;;;60.40;31.73;;;;;;;4.12;100.00;102932.00;5040862;28;20805;-85
2022/01/26 12:16:59;;;;;;;54.90;29.77;;;;;;;4.15;100.00;102923.00;5030812;23;20265;-82
2022/01/26 12:36:15;;;;;;;50.97;28.80;;;;;;;3.81;100.00;102881.00;5036428;28;20528;-82
2022/01/26 12:38:48;;;;;;;53.20;28.20;;;;;;;3.61;100.00;102818.66;5040849;28;20437;-83
2022/01/26 12:41:28;;;;;;;47.93;27.90;;;;;;;4.20;100.00;102923.53;5038430;28;21383;-82
2022/01/26 12:43:57;;;;;;;54.00;29.20;;;;;;;4.12;100.00;102915.22;5040862;28;21018;-85
2022/01/26 12:46:31;;;;;;;45.97;28.53;;;;;;;4.11;100.00;102903.75;5041691;28;20473;-84
2022/01/26 12:49:00;;;;;;;52.20;27.37;;;;;;;4.11;100.00;102894.91;5022540;28;20440;-83
2022/01/26 12:51:27;;;;;;;54.57;27.30;;;;;;;4.26;100.00;102929.25;5020346;28;20530;-78
2022/01/26 12:53:56;;;;;;;52.20;26.97;;;;;;;4.24;100.00;102919.69;5039585;28;20440;-82
2022/01/26 12:56:25;;;;;;;49.27;28.53;;;;;;;3.90;100.00;102844.16;5039703;28;20547;-81
2022/01/26 12:59:06;;;;;;;51.33;27.10;;;;;;;3.93;100.00;102884.59;5035385;28;20499;-83
2022/01/26 13:01:32;;;;;;;45.33;26.10;;;;;;;4.39;100.00;102910.63;5028773;28;20483;-80
2022/01/26 13:03:59;;;;;;;54.07;28.70;;;;;;;4.28;100.00;102922.03;5035686;28;20447;-78
2022/01/26 13:06:29;;;;;;;47.23;26.43;;;;;;;4.26;100.00;102885.91;5032863;28;20482;-79
2022/01/26 13:08:56;;;;;;;44.27;25.00;;;;;;;4.46;100.00;102913.75;5034787;28;20533;-83
2022/01/26 13:11:32;;;;;;;45.43;26.40;;;;;;;3.59;100.00;102778.13;5037764;28;20438;-82
2022/01/26 13:14:18;;;;;;;44.97;27.73;;;;;;;3.68;100.00;102776.63;5035917;28;20926;-81
2022/01/26 13:19:46;;;;;;;47.13;26.37;;;;;;;4.34;100.00;102906.59;5033276;28;20473;-74